createdAt,value
2023-04-22T00:02:23.744Z,10.95
2023-04-22T00:04:51.162Z,13.32
2023-04-22T00:07:18.634Z,10.55
2023-04-22T00:09:46.028Z,10.18
2023-04-22T00:12:13.277Z,14.85
2023-04-22T00:14:40.598Z,9.43
2023-04-22T00:17:07.744Z,10.55
2023-04-22T00:19:35.156Z,12.68
2023-04-22T00:22:04.274Z,10.43
2023-04-22T00:24:31.303Z,11.23
2023-04-22T00:26:58.384Z,12.63
2023-04-22T00:29:26.029Z,12.35
2023-04-22T00:31:53.899Z,10.07
2023-04-22T00:34:21.656Z,15.00
2023-04-22T00:36:49.221Z,15.15
2023-04-22T00:39:16.301Z,12.30
2023-04-22T00:41:43.464Z,13.80
2023-04-22T00:44:11.441Z,13.50
2023-04-22T00:46:39.604Z,15.63
2023-04-22T00:49:08.191Z,9.95
2023-04-22T00:51:35.490Z,14.13
2023-04-22T00:54:03.361Z,11.50
2023-04-22T00:56:33.022Z,11.82
2023-04-22T00:59:00.291Z,13.23
2023-04-22T01:01:28.143Z,11.65
2023-04-22T01:03:56.538Z,12.77
2023-04-22T01:06:24.363Z,11.85
2023-04-22T01:08:51.399Z,14.98
2023-04-22T01:11:18.860Z,19.70
2023-04-22T01:13:46.389Z,13.57
2023-04-22T01:16:13.758Z,11.75
2023-04-22T01:18:41.709Z,9.95
2023-04-22T01:21:08.726Z,10.65
2023-04-22T01:23:35.909Z,10.05
2023-04-22T01:26:02.911Z,14.32
2023-04-22T01:28:30.613Z,14.10
2023-04-22T01:30:57.710Z,11.55
2023-04-22T01:33:24.832Z,12.15
2023-04-22T01:35:54.386Z,13.70
2023-04-22T01:38:23.341Z,14.05
2023-04-22T01:40:51.297Z,11.45
2023-04-22T01:43:18.338Z,12.70
2023-04-22T01:45:45.504Z,15.10
2023-04-22T01:48:12.734Z,14.07
2023-04-22T01:50:39.857Z,14.43
2023-04-22T01:53:07.857Z,12.60
2023-04-22T01:55:37.181Z,12.95
2023-04-22T01:58:05.414Z,13.20
2023-04-22T02:00:32.551Z,14.90
2023-04-22T02:02:59.761Z,11.73
2023-04-22T02:05:27.531Z,13.98
2023-04-22T02:07:55.226Z,11.27
2023-04-22T02:10:22.674Z,10.82
2023-04-22T02:12:49.795Z,12.35
2023-04-22T02:15:17.012Z,13.32
2023-04-22T02:17:44.139Z,14.57
2023-04-22T02:20:11.866Z,16.25
2023-04-22T02:22:41.401Z,13.48
2023-04-22T02:25:09.254Z,12.70
2023-04-22T02:27:36.676Z,11.90
2023-04-22T02:30:04.373Z,13.10
2023-04-22T02:32:31.592Z,10.85
2023-04-22T02:34:58.676Z,13.98
2023-04-22T02:37:25.639Z,10.57
2023-04-22T02:39:53.472Z,11.93
2023-04-22T02:42:20.617Z,11.77
2023-04-22T02:44:47.672Z,10.50
2023-04-22T02:47:14.736Z,14.13
2023-04-22T02:49:42.171Z,13.07
2023-04-22T02:52:09.470Z,10.35
2023-04-22T02:54:36.633Z,11.85
2023-04-22T02:57:03.599Z,11.07
2023-04-22T02:59:31.845Z,10.25
2023-04-22T03:01:58.960Z,14.07
2023-04-22T03:04:26.337Z,10.82
2023-04-22T03:06:53.994Z,11.45
2023-04-22T03:09:21.087Z,11.18
2023-04-22T03:11:48.146Z,10.60
2023-04-22T03:14:15.154Z,12.48
2023-04-22T03:16:42.251Z,10.93
2023-04-22T03:19:09.266Z,10.70
2023-04-22T03:21:36.396Z,11.75
2023-04-22T03:24:03.557Z,11.48
2023-04-22T03:26:30.924Z,13.32
2023-04-22T03:28:58.030Z,11.10
2023-04-22T03:31:25.084Z,13.57
2023-04-22T03:33:52.639Z,13.23
2023-04-22T03:36:19.743Z,14.25
2023-04-22T03:38:46.859Z,12.55
2023-04-22T03:41:13.879Z,11.00
2023-04-22T03:43:40.986Z,11.95
2023-04-22T03:46:08.291Z,11.65
2023-04-22T03:48:35.799Z,12.07
2023-04-22T03:51:02.908Z,13.35
2023-04-22T03:53:29.959Z,13.18
2023-04-22T03:55:56.973Z,12.75
2023-04-22T03:58:24.123Z,12.60
2023-04-22T04:00:51.249Z,10.95
2023-04-22T04:03:18.632Z,12.65
2023-04-22T04:05:45.953Z,14.23
2023-04-22T04:08:13.334Z,15.07
2023-04-22T04:10:41.201Z,13.55
2023-04-22T04:13:08.389Z,11.48
2023-04-22T04:15:36.959Z,13.10
2023-04-22T04:18:04.493Z,10.70
2023-04-22T04:20:31.727Z,11.90
2023-04-22T04:22:58.785Z,12.68
2023-04-22T04:25:25.957Z,12.55
2023-04-22T04:27:54.000Z,13.25
2023-04-22T04:30:22.543Z,11.23
2023-04-22T04:32:49.714Z,12.02
2023-04-22T04:35:18.383Z,14.90
2023-04-22T04:37:46.485Z,16.30
2023-04-22T04:40:13.542Z,13.88
2023-04-22T04:42:40.751Z,14.38
2023-04-22T04:45:09.340Z,12.82
2023-04-22T04:47:36.495Z,18.65
2023-04-22T04:50:04.376Z,13.75
2023-04-22T04:52:31.862Z,15.68
2023-04-22T04:54:58.966Z,15.70
2023-04-22T04:57:26.108Z,14.60
2023-04-22T04:59:53.869Z,18.98
2023-04-22T05:02:21.194Z,12.75
2023-04-22T05:04:48.985Z,14.88
2023-04-22T05:07:16.949Z,14.77
2023-04-22T05:09:44.294Z,16.60
2023-04-22T05:12:11.395Z,16.27
2023-04-22T05:14:38.446Z,13.27
2023-04-22T05:17:05.629Z,14.27
2023-04-22T05:19:32.862Z,14.43
2023-04-22T05:22:00.184Z,18.15
2023-04-22T05:24:27.229Z,14.38
2023-04-22T05:26:54.356Z,12.93
2023-04-22T05:29:22.230Z,12.57
2023-04-22T05:31:49.654Z,18.92
2023-04-22T05:34:17.230Z,14.23
2023-04-22T05:36:44.257Z,14.27
2023-04-22T05:39:11.410Z,15.07
2023-04-22T05:41:38.687Z,14.88
2023-04-22T05:44:05.722Z,15.23
2023-04-22T05:46:32.855Z,17.80
2023-04-22T05:48:59.936Z,17.02
2023-04-22T05:51:27.050Z,15.15
2023-04-22T05:53:54.380Z,13.73
2023-04-22T05:56:22.359Z,20.50
2023-04-22T05:58:56.204Z,16.08
2023-04-22T06:01:26.434Z,18.83
2023-04-22T06:03:55.847Z,17.00
2023-04-22T06:06:27.412Z,16.75
2023-04-22T06:08:54.568Z,20.80
2023-04-22T06:11:26.412Z,18.92
2023-04-22T06:13:54.876Z,17.35
2023-04-22T06:16:23.613Z,25.02
2023-04-22T06:18:50.706Z,31.85
2023-04-22T06:21:17.811Z,31.77
2023-04-22T06:23:56.471Z,29.25
2023-04-22T06:26:23.865Z,20.17
2023-04-22T06:28:51.000Z,18.58
2023-04-22T06:31:19.035Z,19.42
2023-04-22T06:33:48.102Z,21.60
2023-04-22T06:36:17.912Z,21.60
2023-04-22T06:38:47.877Z,24.98
2023-04-22T06:41:15.374Z,22.33
2023-04-22T06:43:42.900Z,20.77
2023-04-22T06:46:10.468Z,25.75
2023-04-22T06:48:37.577Z,24.85
2023-04-22T06:51:04.721Z,22.92
2023-04-22T06:53:31.790Z,23.70
2023-04-22T06:55:58.853Z,28.35
2023-04-22T06:58:26.085Z,25.65
2023-04-22T07:00:54.030Z,31.30
2023-04-22T07:03:21.263Z,21.33
2023-04-22T07:05:49.435Z,26.42
2023-04-22T07:08:17.347Z,24.33
2023-04-22T07:10:44.444Z,23.08
2023-04-22T07:13:11.527Z,27.35
2023-04-22T07:15:38.596Z,25.83
2023-04-22T07:18:05.751Z,29.70
2023-04-22T07:20:33.083Z,27.55
2023-04-22T07:23:00.148Z,32.08
2023-04-22T07:25:27.208Z,29.05
2023-04-22T07:27:54.339Z,27.90
2023-04-22T07:30:22.416Z,27.48
2023-04-22T07:32:49.860Z,31.83
2023-04-22T07:35:18.131Z,30.95
2023-04-22T07:37:45.288Z,33.30
2023-04-22T07:40:13.943Z,32.30
2023-04-22T07:42:41.412Z,29.42
2023-04-22T07:45:08.701Z,34.53
2023-04-22T07:47:35.893Z,27.27
2023-04-22T07:50:03.768Z,33.67
2023-04-22T07:52:30.965Z,29.10
2023-04-22T07:54:58.068Z,26.50
2023-04-22T07:57:25.388Z,23.08
2023-04-22T07:59:57.067Z,27.33
2023-04-22T08:02:24.417Z,33.10
2023-04-22T08:04:52.970Z,26.73
2023-04-22T08:09:50.222Z,26.67
2023-04-22T08:12:17.413Z,21.52
2023-04-22T08:14:44.448Z,26.73
2023-04-22T08:17:11.440Z,30.83
2023-04-22T08:19:38.855Z,25.75
2023-04-22T08:22:07.227Z,27.02
2023-04-22T08:24:34.277Z,22.15
2023-04-22T08:27:02.591Z,22.08
2023-04-22T08:29:29.696Z,24.23
2023-04-22T08:31:56.763Z,21.30
2023-04-22T08:34:26.044Z,19.65
2023-04-22T08:36:54.201Z,21.40
2023-04-22T08:39:21.351Z,23.48
2023-04-22T08:41:50.381Z,24.75
2023-04-22T08:44:17.863Z,19.30
2023-04-22T08:46:47.249Z,17.92
2023-04-22T08:49:20.173Z,21.52
2023-04-22T08:51:49.677Z,20.13
2023-04-22T08:54:17.375Z,18.45
2023-04-22T08:56:45.678Z,18.55
2023-04-22T08:59:13.662Z,17.55
2023-04-22T09:01:42.334Z,16.13
2023-04-22T09:04:11.358Z,15.50
2023-04-22T09:06:39.265Z,18.60
2023-04-22T09:09:08.563Z,13.80
2023-04-22T09:11:36.307Z,14.23
2023-04-22T09:14:06.722Z,14.90
2023-04-22T09:16:39.870Z,12.18
2023-04-22T09:19:11.681Z,14.10
2023-04-22T09:21:40.896Z,13.82
2023-04-22T09:24:09.176Z,15.60
2023-04-22T09:26:41.014Z,13.82
2023-04-22T09:29:13.161Z,12.73
2023-04-22T09:31:40.810Z,14.27
2023-04-22T09:34:08.719Z,13.48
2023-04-22T09:36:38.843Z,17.70
2023-04-22T09:39:08.187Z,15.10
2023-04-22T09:41:38.808Z,13.80
2023-04-22T09:44:18.151Z,13.30
2023-04-22T09:46:45.974Z,13.98
2023-04-22T09:49:17.100Z,14.27
2023-04-22T09:51:44.183Z,16.00
2023-04-22T09:54:11.633Z,14.70
2023-04-22T09:56:53.767Z,13.43
2023-04-22T09:59:30.471Z,14.95
2023-04-22T10:02:04.185Z,12.70
2023-04-22T10:04:31.605Z,12.50
2023-04-22T10:06:59.650Z,13.98
2023-04-22T10:09:26.659Z,15.05
2023-04-22T10:11:56.702Z,14.30
2023-04-22T10:14:24.688Z,10.90
2023-04-22T10:16:59.083Z,14.07
2023-04-22T10:19:27.374Z,12.18
2023-04-22T10:21:59.355Z,13.13
2023-04-22T10:24:28.440Z,11.85
2023-04-22T10:26:59.899Z,15.48
2023-04-22T10:29:35.442Z,14.27
2023-04-22T10:32:17.411Z,10.70
2023-04-22T10:34:47.138Z,11.70
2023-04-22T10:37:18.438Z,13.88
2023-04-22T10:40:07.840Z,11.63
2023-04-22T10:42:35.254Z,13.68
2023-04-22T10:45:04.473Z,10.85
2023-04-22T10:47:38.712Z,12.55
2023-04-22T10:50:19.600Z,13.18
2023-04-22T10:52:50.042Z,13.98
2023-04-22T10:55:18.456Z,13.50
2023-04-22T10:57:47.348Z,13.48
2023-04-22T11:00:22.370Z,11.88
2023-04-22T11:02:54.359Z,12.73
2023-04-22T11:05:26.323Z,11.10
2023-04-22T11:07:55.833Z,11.60
2023-04-22T11:13:09.975Z,10.55
2023-04-22T11:15:39.098Z,10.77
2023-04-22T11:18:17.041Z,13.30
2023-04-22T11:20:44.554Z,13.75
2023-04-22T11:23:11.711Z,10.80
2023-04-22T11:25:38.755Z,9.93
2023-04-22T11:28:06.200Z,15.13
2023-04-22T11:30:33.247Z,10.85
2023-04-22T11:33:00.722Z,10.82
2023-04-22T11:35:33.347Z,14.27
2023-04-22T11:38:08.600Z,15.98
2023-04-22T11:40:42.787Z,12.98
2023-04-22T11:43:12.315Z,12.73
2023-04-22T11:45:39.806Z,14.68
2023-04-22T11:48:09.318Z,16.45
2023-04-22T11:50:38.287Z,15.18
2023-04-22T11:53:18.186Z,13.52
2023-04-22T11:55:47.359Z,16.83
2023-04-22T11:58:17.334Z,16.17
2023-04-22T12:00:47.283Z,15.43
2023-04-22T12:03:19.457Z,17.90
2023-04-22T12:05:53.969Z,16.38
2023-04-22T12:08:23.742Z,18.48
2023-04-22T12:10:54.548Z,21.15
2023-04-22T12:13:24.224Z,20.83
2023-04-22T12:16:03.185Z,20.63
2023-04-22T12:18:38.190Z,19.88
2023-04-22T12:21:08.912Z,21.55
2023-04-22T12:23:53.287Z,18.65
2023-04-22T12:26:25.384Z,19.92
2023-04-22T12:28:55.956Z,14.70
2023-04-22T12:31:24.190Z,15.27
2023-04-22T12:33:51.286Z,17.00
2023-04-22T12:36:20.941Z,16.98
2023-04-22T12:38:48.348Z,17.55
2023-04-22T12:41:18.400Z,18.00
2023-04-22T12:43:45.554Z,17.60
2023-04-22T12:46:12.789Z,18.27
2023-04-22T12:48:39.933Z,16.20
2023-04-22T12:51:07.274Z,18.73
2023-04-22T12:53:34.690Z,17.75
2023-04-22T12:56:01.867Z,20.80
2023-04-22T12:58:28.968Z,23.48
2023-04-22T13:00:56.013Z,18.63
2023-04-22T13:03:24.122Z,17.42
2023-04-22T13:05:53.562Z,17.73
2023-04-22T13:08:21.137Z,20.52
2023-04-22T13:10:48.638Z,21.27
2023-04-22T13:13:19.096Z,22.67
2023-04-22T13:15:50.445Z,19.50
2023-04-22T13:18:17.750Z,21.02
2023-04-22T13:20:45.556Z,20.17
2023-04-22T13:23:13.391Z,22.90
2023-04-22T13:25:40.583Z,25.80
2023-04-22T13:28:07.697Z,23.13
2023-04-22T13:30:34.885Z,29.50
2023-04-22T13:33:02.033Z,31.23
2023-04-22T13:35:29.150Z,26.60
2023-04-22T13:37:56.260Z,25.45
2023-04-22T13:40:24.309Z,28.02
2023-04-22T13:42:53.168Z,25.17
2023-04-22T13:45:20.605Z,24.60
2023-04-22T13:47:47.873Z,29.58
2023-04-22T13:50:15.418Z,25.33
2023-04-22T13:52:42.581Z,27.55
2023-04-22T13:55:09.829Z,27.95
2023-04-22T13:57:37.054Z,28.20
2023-04-22T14:00:05.403Z,25.00
2023-04-22T14:02:32.736Z,28.25
2023-04-22T14:04:59.891Z,29.67
2023-04-22T14:07:26.974Z,29.63
2023-04-22T14:09:54.132Z,28.90
2023-04-22T14:12:21.263Z,31.70
2023-04-22T14:14:48.404Z,29.33
2023-04-22T14:17:15.565Z,29.05
2023-04-22T14:19:44.928Z,26.88
2023-04-22T14:22:11.962Z,30.40
2023-04-22T14:24:39.020Z,27.85
2023-04-22T14:27:06.202Z,31.17
2023-04-22T14:29:33.360Z,27.65
2023-04-22T14:32:01.070Z,33.22
2023-04-22T14:34:28.472Z,36.47
2023-04-22T14:36:55.629Z,33.65
2023-04-22T14:39:23.893Z,29.17
2023-04-22T14:41:51.540Z,30.33
2023-04-22T14:44:22.948Z,32.53
2023-04-22T14:46:50.047Z,32.50
2023-04-22T14:49:17.617Z,35.55
2023-04-22T14:51:44.661Z,28.65
2023-04-22T14:54:12.134Z,28.80
2023-04-22T14:56:39.322Z,30.00
2023-04-22T14:59:06.525Z,31.48
2023-04-22T15:01:33.655Z,31.98
2023-04-22T15:04:00.787Z,30.58
2023-04-22T15:06:28.347Z,29.48
2023-04-22T15:08:55.906Z,31.45
2023-04-22T15:11:24.195Z,30.33
2023-04-22T15:13:51.353Z,29.25
2023-04-22T15:16:18.505Z,33.28
2023-04-22T15:18:45.904Z,31.05
2023-04-22T15:21:13.113Z,31.20
2023-04-22T15:23:40.255Z,29.73
2023-04-22T15:26:07.383Z,31.65
2023-04-22T15:28:34.437Z,34.17
2023-04-22T15:31:01.740Z,29.88
2023-04-22T15:33:28.995Z,26.92
2023-04-22T15:35:56.122Z,31.48
2023-04-22T15:38:24.647Z,30.42
2023-04-22T15:40:51.688Z,26.70
2023-04-22T15:43:19.852Z,27.30
2023-04-22T15:45:47.494Z,27.08
2023-04-22T15:48:14.925Z,28.88
2023-04-22T15:50:42.014Z,29.45
2023-04-22T15:53:09.070Z,27.85
2023-04-22T15:55:36.096Z,26.73
2023-04-22T15:58:03.166Z,35.38
2023-04-22T16:00:30.264Z,37.10
2023-04-22T16:02:58.134Z,38.22
2023-04-22T16:05:25.503Z,40.80
2023-04-22T16:07:54.282Z,38.80
2023-04-22T16:10:21.451Z,40.22
2023-04-22T16:12:49.538Z,46.15
2023-04-22T16:15:17.831Z,44.20
2023-04-22T16:17:45.128Z,51.75
2023-04-22T16:20:12.227Z,46.30
2023-04-22T16:22:40.519Z,45.45
2023-04-22T16:25:08.544Z,41.70
2023-04-22T16:27:35.789Z,38.92
2023-04-22T16:30:03.392Z,49.97
2023-04-22T16:32:31.069Z,50.42
2023-04-22T16:35:11.175Z,46.83
2023-04-22T16:37:38.195Z,50.40
2023-04-22T16:40:06.672Z,45.72
2023-04-22T16:42:33.842Z,54.03
2023-04-22T16:45:01.555Z,51.70
2023-04-22T16:47:28.836Z,52.85
2023-04-22T16:49:56.035Z,51.13
2023-04-22T16:52:23.872Z,48.00
2023-04-22T16:54:51.572Z,46.13
2023-04-22T16:57:19.646Z,45.17
2023-04-22T16:59:47.952Z,52.88
2023-04-22T17:02:15.247Z,46.17
2023-04-22T17:04:42.896Z,44.33
2023-04-22T17:07:10.263Z,47.22
2023-04-22T17:09:37.352Z,42.70
2023-04-22T17:12:04.610Z,38.40
2023-04-22T17:14:31.860Z,37.88
2023-04-22T17:16:58.860Z,36.45
2023-04-22T17:19:26.071Z,38.60
2023-04-22T17:21:54.315Z,36.47
2023-04-22T17:24:22.376Z,42.75
2023-04-22T17:26:49.815Z,37.13
2023-04-22T17:29:21.436Z,39.83
2023-04-22T17:31:49.179Z,45.78
2023-04-22T17:34:16.796Z,40.83
2023-04-22T17:36:43.907Z,38.60
2023-04-22T17:39:11.748Z,41.03
2023-04-22T17:41:38.836Z,35.25
2023-04-22T17:44:08.739Z,37.30
2023-04-22T17:46:35.874Z,34.88
2023-04-22T17:49:03.008Z,38.17
2023-04-22T17:51:31.469Z,46.97
2023-04-22T17:53:58.664Z,38.05
2023-04-22T17:56:26.029Z,42.10
2023-04-22T17:58:53.967Z,42.13
2023-04-22T18:01:21.076Z,46.30
2023-04-22T18:03:48.284Z,48.33
2023-04-22T18:06:16.018Z,45.53
2023-04-22T18:08:43.116Z,47.35
2023-04-22T18:11:11.131Z,50.30
2023-04-22T18:13:38.494Z,45.33
2023-04-22T18:16:05.791Z,42.95
2023-04-22T18:18:32.855Z,47.38
2023-04-22T18:21:01.299Z,42.35
2023-04-22T18:23:28.886Z,42.47
2023-04-22T18:25:56.257Z,47.92
2023-04-22T18:28:26.888Z,46.38
2023-04-22T18:30:54.044Z,45.85
2023-04-22T18:33:21.078Z,50.72
2023-04-22T18:35:48.124Z,51.03
2023-04-22T18:38:15.100Z,50.88
2023-04-22T18:40:42.309Z,48.47
2023-04-22T18:43:09.382Z,46.30
2023-04-22T18:45:36.683Z,50.42
2023-04-22T18:48:03.952Z,53.63
2023-04-22T18:50:31.017Z,56.38
2023-04-22T18:52:58.130Z,59.47
2023-04-22T18:55:25.337Z,51.95
2023-04-22T18:57:52.999Z,54.25
2023-04-22T19:00:20.111Z,53.05
2023-04-22T19:02:48.071Z,49.78
2023-04-22T19:05:15.490Z,50.33
2023-04-22T19:07:44.918Z,58.28
2023-04-22T19:10:12.358Z,57.80
2023-04-22T19:12:39.479Z,56.55
2023-04-22T19:15:07.336Z,50.17
2023-04-22T19:17:34.964Z,53.50
2023-04-22T19:20:02.538Z,55.35
2023-04-22T19:22:29.585Z,54.50
2023-04-22T19:24:58.596Z,45.72
2023-04-22T19:27:26.723Z,50.15
2023-04-22T19:29:54.076Z,46.35
2023-04-22T19:32:21.157Z,48.33
2023-04-22T19:34:49.853Z,50.55
2023-04-22T19:37:18.520Z,46.45
2023-04-22T19:39:46.099Z,56.65
2023-04-22T19:42:13.294Z,50.20
2023-04-22T19:44:42.917Z,51.58
2023-04-22T19:47:10.085Z,53.28
2023-04-22T19:49:38.716Z,63.22
2023-04-22T19:52:09.472Z,48.67
2023-04-22T19:54:37.115Z,60.40
2023-04-22T19:57:06.496Z,58.22
2023-04-22T19:59:34.088Z,56.63
2023-04-22T20:02:01.614Z,55.10
2023-04-22T20:04:29.055Z,69.68
2023-04-22T20:06:57.735Z,57.33
2023-04-22T20:09:26.498Z,102.80
2023-04-22T20:11:53.978Z,114.90
2023-04-22T20:14:22.206Z,70.38
2023-04-22T20:16:49.881Z,65.68
2023-04-22T20:19:17.976Z,63.97
2023-04-22T20:21:48.193Z,67.63
2023-04-22T20:24:19.630Z,58.75
2023-04-22T20:26:48.007Z,54.80
2023-04-22T20:29:21.448Z,56.67
2023-04-22T20:31:48.822Z,60.15
2023-04-22T20:34:16.359Z,57.85
2023-04-22T20:36:43.615Z,59.28
2023-04-22T20:39:14.064Z,58.58
2023-04-22T20:41:41.577Z,55.28
2023-04-22T20:44:08.667Z,59.13
2023-04-22T20:46:35.751Z,54.47
2023-04-22T20:49:02.949Z,57.45
2023-04-22T20:51:30.011Z,65.30
2023-04-22T20:53:57.432Z,60.50
2023-04-22T20:56:25.305Z,57.75
2023-04-22T20:58:53.186Z,74.18
2023-04-22T21:01:20.430Z,82.88
2023-04-22T21:03:52.982Z,63.17
2023-04-22T21:06:21.125Z,69.50
2023-04-22T21:08:54.031Z,59.38
2023-04-22T21:11:21.568Z,54.42
2023-04-22T21:13:50.279Z,80.10
2023-04-22T21:16:19.126Z,92.30
2023-04-22T21:18:47.458Z,87.38
2023-04-22T21:21:17.476Z,76.75
2023-04-22T21:23:44.742Z,101.55
2023-04-22T21:26:13.882Z,107.43
2023-04-22T21:28:41.361Z,98.05
2023-04-22T21:31:08.545Z,82.75
2023-04-22T21:33:35.702Z,88.28
2023-04-22T21:36:02.853Z,66.72
2023-04-22T21:38:29.887Z,74.53
2023-04-22T21:40:56.979Z,77.85
2023-04-22T21:43:24.065Z,119.55
2023-04-22T21:45:51.095Z,96.78
2023-04-22T21:48:18.102Z,71.22
2023-04-22T21:50:45.446Z,80.57
2023-04-22T21:53:12.701Z,75.85
2023-04-22T21:55:40.299Z,76.05
2023-04-22T21:58:07.361Z,79.38
2023-04-22T22:00:34.373Z,84.72
2023-04-22T22:03:01.794Z,85.30
2023-04-22T22:05:29.338Z,85.10
2023-04-22T22:07:56.645Z,90.60
2023-04-22T22:10:24.110Z,105.68
2023-04-22T22:12:51.347Z,87.85
2023-04-22T22:15:18.731Z,80.72
2023-04-22T22:17:46.153Z,84.57
2023-04-22T22:20:16.611Z,94.05
2023-04-22T22:22:44.546Z,94.57
2023-04-22T22:25:13.549Z,97.80
2023-04-22T22:27:41.699Z,97.43
2023-04-22T22:30:09.081Z,101.35
2023-04-22T22:32:36.328Z,102.18
2023-04-22T22:35:04.161Z,105.70
2023-04-22T22:37:31.350Z,108.63
2023-04-22T22:39:58.428Z,107.22
2023-04-22T22:42:25.527Z,109.00
2023-04-22T22:44:53.736Z,125.40
2023-04-22T22:47:20.819Z,101.22
2023-04-22T22:49:47.933Z,77.82
2023-04-22T22:52:14.981Z,95.25
2023-04-22T22:54:42.614Z,92.13
2023-04-22T22:57:10.106Z,93.53
2023-04-22T22:59:37.251Z,85.45
2023-04-22T23:02:04.644Z,88.90
2023-04-22T23:04:32.101Z,84.22
2023-04-22T23:06:59.355Z,94.57
2023-04-22T23:09:26.396Z,88.72
2023-04-22T23:11:55.293Z,98.03
2023-04-22T23:14:23.697Z,83.28
2023-04-22T23:16:50.953Z,93.07
2023-04-22T23:19:18.505Z,81.43
2023-04-22T23:21:46.571Z,79.70
2023-04-22T23:24:15.190Z,80.78
2023-04-22T23:26:42.829Z,84.85
2023-04-22T23:29:10.212Z,82.72
2023-04-22T23:31:40.347Z,73.60
2023-04-22T23:34:08.085Z,71.60
2023-04-22T23:36:38.782Z,84.32
2023-04-22T23:39:06.796Z,75.60
2023-04-22T23:41:33.845Z,79.07
2023-04-22T23:44:00.886Z,71.25
2023-04-22T23:46:28.010Z,82.07
2023-04-22T23:48:55.182Z,72.68
2023-04-22T23:51:22.803Z,82.07
2023-04-22T23:53:49.877Z,81.38
2023-04-22T23:56:21.047Z,78.35
2023-04-22T23:58:49.385Z,77.43
